Time,TemperatureF,DewpointF,PressureIn,WindDirection,WindDirectionDegrees,WindSpeedMPH,WindSpeedGustMPH,Humidity,HourlyPrecipIn,Conditions,Clouds,dailyrainin,SoftwareType,DateUTC
2013-08-21 00:10:00,71.9,71.0,30.09,ESE,123,0.0,-999.0,95,-99.99,,,0.32,weatherlink.com 1.10,2013-08-21 05:10:00,
2013-08-21 00:25:00,71.8,70.0,30.08,ESE,123,0.0,-999.0,95,-99.99,,,0.32,weatherlink.com 1.10,2013-08-21 05:25:00,
2013-08-21 00:40:00,71.7,71.0,30.08,ESE,123,0.0,-999.0,96,-99.99,,,0.32,weatherlink.com 1.10,2013-08-21 05:40:00,
2013-08-21 00:55:00,71.6,70.0,30.07,ESE,123,0.0,-999.0,96,-99.99,,,0.32,weatherlink.com 1.10,2013-08-21 05:55:00,
2013-08-21 01:10:00,71.4,70.0,30.07,ESE,123,0.0,-999.0,96,-99.99,,,0.32,weatherlink.com 1.10,2013-08-21 06:10:00,
2013-08-21 01:25:00,71.2,70.0,30.08,ESE,123,0.0,-999.0,96,-99.99,,,0.32,weatherlink.com 1.10,2013-08-21 06:25:00,
2013-08-21 01:40:00,71.2,70.0,30.08,ESE,123,1.0,-999.0,96,-99.99,,,0.32,weatherlink.com 1.10,2013-08-21 06:40:00,
2013-08-21 01:55:00,71.2,70.0,30.07,ESE,123,0.0,-999.0,96,-99.99,,,0.32,weatherlink.com 1.10,2013-08-21 06:55:00,
2013-08-21 02:10:00,71.2,70.0,30.08,ENE,65,4.0,-999.0,96,-99.99,,,0.32,weatherlink.com 1.10,2013-08-21 07:10:00,
2013-08-21 02:25:00,71.3,70.0,30.07,NE,49,0.0,-999.0,96,-99.99,,,0.32,weatherlink.com 1.10,2013-08-21 07:25:00,
2013-08-21 02:40:00,71.2,70.0,30.07,ESE,121,0.0,-999.0,96,-99.99,,,0.32,weatherlink.com 1.10,2013-08-21 07:40:00,
2013-08-21 02:55:00,71.2,70.0,30.07,ESE,121,0.0,-999.0,96,-99.99,,,0.32,weatherlink.com 1.10,2013-08-21 07:55:00,
2013-08-21 03:10:00,71.1,70.0,30.07,East,100,1.0,-999.0,96,-99.99,,,0.00,weatherlink.com 1.10,2013-08-21 08:10:00,
2013-08-21 03:25:00,71.2,70.0,30.07,East,100,0.0,-999.0,96,-99.99,,,0.00,weatherlink.com 1.10,2013-08-21 08:25:00,
2013-08-21 03:40:00,71.3,70.0,30.07,East,100,0.0,-999.0,97,-99.99,,,0.00,weatherlink.com 1.10,2013-08-21 08:40:00,
2013-08-21 03:55:00,71.2,70.0,30.07,East,100,0.0,-999.0,97,-99.99,,,0.00,weatherlink.com 1.10,2013-08-21 08:55:00,
2013-08-21 04:10:00,71.1,70.0,30.07,East,100,0.0,-999.0,97,-99.99,,,0.00,weatherlink.com 1.10,2013-08-21 09:10:00,
2013-08-21 04:25:00,71.2,70.0,30.08,East,100,0.0,-999.0,97,-99.99,,,0.00,weatherlink.com 1.10,2013-08-21 09:25:00,
2013-08-21 04:40:00,71.5,71.0,30.08,East,100,0.0,-999.0,97,-99.99,,,0.00,weatherlink.com 1.10,2013-08-21 09:40:00,
2013-08-21 04:55:00,71.7,71.0,30.08,East,100,0.0,-999.0,97,-99.99,,,0.00,weatherlink.com 1.10,2013-08-21 09:55:00,
2013-08-21 05:10:00,71.9,71.0,30.09,East,100,0.0,-999.0,97,-99.99,,,0.00,weatherlink.com 1.10,2013-08-21 10:10:00,
2013-08-21 05:25:00,71.9,71.0,30.09,East,100,0.0,-999.0,97,-99.99,,,0.00,weatherlink.com 1.10,2013-08-21 10:25:00,
2013-08-21 05:40:00,72.1,71.0,30.10,East,100,0.0,-999.0,97,-99.99,,,0.00,weatherlink.com 1.10,2013-08-21 10:40:00,
2013-08-21 05:55:00,72.1,71.0,30.11,East,100,0.0,-999.0,97,-99.99,,,0.00,weatherlink.com 1.10,2013-08-21 10:55:00,
2013-08-21 06:10:00,72.1,71.0,30.11,East,100,0.0,-999.0,97,-99.99,,,0.00,weatherlink.com 1.10,2013-08-21 11:10:00,
2013-08-21 06:25:00,72.2,71.0,30.12,ESE,121,0.0,-999.0,97,-99.99,,,0.00,weatherlink.com 1.10,2013-08-21 11:25:00,
2013-08-21 06:41:00,72.1,71.0,30.13,SSE,153,0.0,-999.0,96,-99.99,,,0.00,weatherlink.com 1.10,2013-08-21 11:41:00,
2013-08-21 06:56:00,72.0,71.0,30.13,SSE,155,2.0,-999.0,96,-99.99,,,0.00,weatherlink.com 1.10,2013-08-21 11:56:00,
2013-08-21 07:11:00,72.0,71.0,30.14,South,190,0.0,-999.0,96,-99.99,,,0.00,weatherlink.com 1.10,2013-08-21 12:11:00,
2013-08-21 07:26:00,72.2,71.0,30.14,South,170,0.0,-999.0,96,-99.99,,,0.00,weatherlink.com 1.10,2013-08-21 12:26:00,
2013-08-21 07:41:00,72.3,71.0,30.15,SSE,158,0.0,-999.0,96,-99.99,,,0.00,weatherlink.com 1.10,2013-08-21 12:41:00,
2013-08-21 07:56:00,72.5,71.0,30.15,South,178,1.0,-999.0,96,-99.99,,,0.00,weatherlink.com 1.10,2013-08-21 12:56:00,
2013-08-21 08:11:00,72.9,72.0,30.15,South,179,0.0,-999.0,96,-99.99,,,0.00,weatherlink.com 1.10,2013-08-21 13:11:00,
2013-08-21 08:26:00,73.4,72.0,30.15,South,179,0.0,-999.0,95,-99.99,,,0.00,weatherlink.com 1.10,2013-08-21 13:26:00,
2013-08-21 08:41:00,73.9,72.0,30.15,South,180,1.0,-999.0,94,-99.99,,,0.00,weatherlink.com 1.10,2013-08-21 13:41:00,
2013-08-21 08:56:00,74.7,73.0,30.15,South,180,1.0,-999.0,93,-99.99,,,0.00,weatherlink.com 1.10,2013-08-21 13:56:00,
2013-08-21 09:11:00,75.5,73.0,30.15,SSW,205,2.0,-999.0,91,-99.99,,,0.00,weatherlink.com 1.10,2013-08-21 14:11:00,
2013-08-21 09:26:00,75.5,73.0,30.16,West,262,0.0,-999.0,92,-99.99,,,0.00,weatherlink.com 1.10,2013-08-21 14:26:00,
2013-08-21 09:41:00,75.3,73.0,30.16,SW,232,0.0,-999.0,91,-99.99,,,0.00,weatherlink.com 1.10,2013-08-21 14:41:00,
2013-08-21 09:56:00,76.1,73.0,30.15,WNW,282,0.0,-999.0,89,-99.99,,,0.00,weatherlink.com 1.10,2013-08-21 14:56:00,
2013-08-21 10:11:00,76.4,73.0,30.15,WNW,289,0.0,-999.0,89,-99.99,,,0.00,weatherlink.com 1.10,2013-08-21 15:11:00,
2013-08-21 10:26:00,78.0,73.0,30.15,SW,235,3.0,-999.0,85,-99.99,,,0.00,weatherlink.com 1.10,2013-08-21 15:26:00,
2013-08-21 10:41:00,78.5,73.0,30.15,WSW,240,1.0,-999.0,83,-99.99,,,0.00,weatherlink.com 1.10,2013-08-21 15:41:00,
2013-08-21 10:56:00,78.7,73.0,30.15,WNW,284,0.0,-999.0,83,-99.99,,,0.00,weatherlink.com 1.10,2013-08-21 15:56:00,
2013-08-21 11:11:00,79.3,73.0,30.15,South,184,0.0,-999.0,81,-99.99,,,0.00,weatherlink.com 1.10,2013-08-21 16:11:00,
2013-08-21 11:26:00,80.0,74.0,30.14,SE,126,2.0,-999.0,82,-99.99,,,0.00,weatherlink.com 1.10,2013-08-21 16:26:00,
2013-08-21 11:41:00,80.8,74.0,30.14,NW,313,1.0,-999.0,79,-99.99,,,0.00,weatherlink.com 1.10,2013-08-21 16:41:00,
2013-08-21 11:56:00,81.5,74.0,30.14,West,269,3.0,-999.0,78,-99.99,,,0.00,weatherlink.com 1.10,2013-08-21 16:56:00,
2013-08-21 12:11:00,82.6,75.0,30.13,West,265,0.0,-999.0,77,-99.99,,,0.00,weatherlink.com 1.10,2013-08-21 17:11:00,
2013-08-21 12:26:00,82.5,74.0,30.13,WSW,249,2.0,-999.0,75,-99.99,,,0.00,weatherlink.com 1.10,2013-08-21 17:26:00,
2013-08-21 12:41:00,83.0,74.0,30.12,East,94,1.0,-999.0,75,-99.99,,,0.00,weatherlink.com 1.10,2013-08-21 17:41:00,
2013-08-21 12:56:00,83.3,75.0,30.12,WNW,283,0.0,-999.0,75,-99.99,,,0.00,weatherlink.com 1.10,2013-08-21 17:56:00,
2013-08-21 13:11:00,83.0,75.0,30.11,WSW,256,0.0,-999.0,76,-99.99,,,0.00,weatherlink.com 1.10,2013-08-21 18:11:00,
2013-08-21 13:26:00,82.6,75.0,30.11,North,5,0.0,-999.0,77,-99.99,,,0.00,weatherlink.com 1.10,2013-08-21 18:26:00,
2013-08-21 13:41:00,84.1,75.0,30.11,East,86,1.0,-999.0,75,-99.99,,,0.00,weatherlink.com 1.10,2013-08-21 18:41:00,
2013-08-21 13:56:00,84.0,76.0,30.10,East,87,1.0,-999.0,76,-99.99,,,0.00,weatherlink.com 1.10,2013-08-21 18:56:00,
2013-08-21 14:11:00,84.5,75.0,30.10,SE,128,2.0,-999.0,72,-99.99,,,0.00,weatherlink.com 1.10,2013-08-21 19:11:00,
2013-08-21 14:26:00,84.4,74.0,30.10,SE,136,0.0,-999.0,72,-99.99,,,0.00,weatherlink.com 1.10,2013-08-21 19:26:00,
2013-08-21 14:41:00,84.3,74.0,30.09,SE,136,1.0,-999.0,70,-99.99,,,0.00,weatherlink.com 1.10,2013-08-21 19:41:00,
2013-08-21 14:56:00,85.5,75.0,30.08,SE,128,1.0,-999.0,70,-99.99,,,0.00,weatherlink.com 1.10,2013-08-21 19:56:00,
2013-08-21 15:12:00,86.5,75.0,30.08,NE,52,0.0,-999.0,68,-99.99,,,0.00,weatherlink.com 1.10,2013-08-21 20:12:00,
2013-08-21 15:27:00,87.0,75.0,30.07,East,84,0.0,-999.0,67,-99.99,,,0.00,weatherlink.com 1.10,2013-08-21 20:27:00,
2013-08-21 15:42:00,86.8,74.0,30.07,NE,53,1.0,-999.0,66,-99.99,,,0.00,weatherlink.com 1.10,2013-08-21 20:42:00,
2013-08-21 15:57:00,86.2,74.0,30.06,East,81,0.0,-999.0,67,-99.99,,,0.00,weatherlink.com 1.10,2013-08-21 20:57:00,
2013-08-21 16:12:00,85.8,74.0,30.05,ESE,120,2.0,-999.0,68,-99.99,,,0.00,weatherlink.com 1.10,2013-08-21 21:12:00,
2013-08-21 16:27:00,85.6,73.0,30.05,SE,127,2.0,-999.0,66,-99.99,,,0.00,weatherlink.com 1.10,2013-08-21 21:27:00,
2013-08-21 16:42:00,85.4,73.0,30.05,ESE,111,1.0,-999.0,67,-99.99,,,0.00,weatherlink.com 1.10,2013-08-21 21:42:00,
2013-08-21 16:57:00,84.8,74.0,30.05,East,91,5.0,-999.0,70,-99.99,,,0.00,weatherlink.com 1.10,2013-08-21 21:57:00,
2013-08-21 17:12:00,83.7,74.0,30.05,ESE,115,2.0,-999.0,73,-99.99,,,0.00,weatherlink.com 1.10,2013-08-21 22:12:00,
2013-08-21 17:27:00,82.5,75.0,30.05,NE,48,6.0,-999.0,77,-99.99,,,0.00,weatherlink.com 1.10,2013-08-21 22:27:00,
2013-08-21 17:42:00,81.3,73.0,30.06,ENE,75,5.0,-999.0,77,-99.99,,,0.00,weatherlink.com 1.10,2013-08-21 22:42:00,
2013-08-21 17:57:00,80.3,73.0,30.06,East,98,7.0,-999.0,77,-99.99,,,0.00,weatherlink.com 1.10,2013-08-21 22:57:00,
2013-08-21 18:12:00,79.6,73.0,30.07,ENE,74,4.0,-999.0,79,-99.99,,,0.00,weatherlink.com 1.10,2013-08-21 23:12:00,
2013-08-21 18:27:00,78.8,73.0,30.07,NNE,13,0.0,-999.0,81,-99.99,,,0.00,weatherlink.com 1.10,2013-08-21 23:27:00,
2013-08-21 18:42:00,77.9,71.0,30.08,NE,43,0.0,-999.0,79,-99.99,,,0.00,weatherlink.com 1.10,2013-08-21 23:42:00,
2013-08-21 18:57:00,77.4,71.0,30.07,SE,128,4.0,-999.0,81,-99.99,,,0.00,weatherlink.com 1.10,2013-08-21 23:57:00,
2013-08-21 19:12:00,76.7,71.0,30.06,ESE,110,0.0,-999.0,82,-99.99,,,0.00,weatherlink.com 1.10,2013-08-22 00:12:00,
2013-08-21 19:27:00,75.8,71.0,30.07,ESE,110,0.0,-999.0,86,-99.99,,,0.00,weatherlink.com 1.10,2013-08-22 00:27:00,
2013-08-21 19:42:00,75.2,71.0,30.07,ESE,110,1.0,-999.0,87,-99.99,,,0.00,weatherlink.com 1.10,2013-08-22 00:42:00,
2013-08-21 19:57:00,74.4,71.0,30.08,ESE,110,1.0,-999.0,89,-99.99,,,0.00,weatherlink.com 1.10,2013-08-22 00:57:00,
2013-08-21 20:12:00,74.0,71.0,30.09,ENE,72,0.0,-999.0,89,-99.99,,,0.00,weatherlink.com 1.10,2013-08-22 01:12:00,
2013-08-21 20:27:00,73.6,71.0,30.10,SSE,154,1.0,-999.0,91,-99.99,,,0.00,weatherlink.com 1.10,2013-08-22 01:27:00,
2013-08-21 20:42:00,73.5,71.0,30.10,SE,127,0.0,-999.0,91,-99.99,,,0.00,weatherlink.com 1.10,2013-08-22 01:42:00,
2013-08-21 20:57:00,74.3,71.0,30.11,ESE,122,0.0,-999.0,90,-99.99,,,0.00,weatherlink.com 1.10,2013-08-22 01:57:00,
2013-08-21 21:12:00,73.8,70.0,30.11,ESE,122,0.0,-999.0,89,-99.99,,,0.00,weatherlink.com 1.10,2013-08-22 02:12:00,
2013-08-21 21:27:00,73.3,71.0,30.12,SE,132,0.0,-999.0,91,-99.99,,,0.00,weatherlink.com 1.10,2013-08-22 02:27:00,
2013-08-21 21:42:00,73.1,70.0,30.12,SE,131,0.0,-999.0,91,-99.99,,,0.00,weatherlink.com 1.10,2013-08-22 02:42:00,
2013-08-21 21:57:00,72.9,71.0,30.11,SE,131,0.0,-999.0,92,-99.99,,,0.00,weatherlink.com 1.10,2013-08-22 02:57:00,
2013-08-21 22:12:00,72.7,71.0,30.11,SE,131,0.0,-999.0,93,-99.99,,,0.00,weatherlink.com 1.10,2013-08-22 03:12:00,
2013-08-21 22:27:00,72.4,70.0,30.11,SE,131,0.0,-999.0,93,-99.99,,,0.00,weatherlink.com 1.10,2013-08-22 03:27:00,
2013-08-21 22:42:00,72.1,70.0,30.10,SE,131,0.0,-999.0,94,-99.99,,,0.00,weatherlink.com 1.10,2013-08-22 03:42:00,
2013-08-21 22:57:00,71.9,70.0,30.09,SE,131,0.0,-999.0,94,-99.99,,,0.00,weatherlink.com 1.10,2013-08-22 03:57:00,
2013-08-21 23:12:00,71.7,70.0,30.09,ESE,119,1.0,-999.0,94,-99.99,,,0.00,weatherlink.com 1.10,2013-08-22 04:12:00,
2013-08-21 23:27:00,71.5,70.0,30.10,ESE,119,1.0,-999.0,94,-99.99,,,0.00,weatherlink.com 1.10,2013-08-22 04:27:00,
2013-08-21 23:42:00,71.3,70.0,30.10,ESE,119,0.0,-999.0,95,-99.99,,,0.00,weatherlink.com 1.10,2013-08-22 04:42:00,
2013-08-21 23:57:00,71.2,70.0,30.10,ESE,119,0.0,-999.0,95,-99.99,,,0.00,weatherlink.com 1.10,2013-08-22 04:57:00,